ソチ の空港の天気 - METARとTAF

ソチ空港 ( URSS / AER ) - ロシア ソチ
飛行場実況気象(Metar)
観測時間06/29 04:30 MSK (06/29 01:30 UTC)
風向・風速静穏 0m/s
視程10km以上
天気現象
全天の4割程度の雲 雲底高度 460m
気温21℃
湿度88%
気圧1011hPa
METARURSS 290130Z 00000MPS 9999 SCT015 21/19 Q1011 R06/090070 R02/090070 NOSIG RMK R02/05003MPS MT OBSC QFE757
過去の天気等 Google飛行場航空写真 Wunderground天気予報

過去48時間のMETAR

飛行場予報(TAF)
発表時間: 6/29 01:57 MSK (6/28 22:57 UTC)
予報対象時間: 29日3時 MSK ~ 30日3時 MSK
風向・風速北東 5m/s
視程10km以上
全天の4割程度の雲 雲底高度 610m
29日3時 MSK ~ 29日9時 MSK に一時的に
風向・風速不定 1m/s
視程2,100m
天気現象弱い霧雨 もや
全天の8割程度の雲 雲底高度 180m
全天を覆う雲 雲底高度 610m
29日9時 MSK ~ 29日11時 MSK に徐々に
風向・風速西 6m/s 瞬間風速 11m/s
全天の4割程度の雲 雲底高度 910m
29日9時 MSK ~ 29日12時 MSK に一時的に
風向・風速南南西 6m/s 瞬間風速 11m/s
29日19時 MSK ~ 29日20時 MSK に徐々に
風向・風速北東 5m/s
全天の8割程度の雲 雲底高度 610m
TAF URSS 282257Z 2900/2924 05005MPS 9999 SCT020
TEMPO 2900/2906 VRB01MPS 2100 -DZ BR BKN006 OVC020
BECMG 2906/2908 28006G11MPS SCT030
TEMPO 2906/2909 20006G11MPS
BECMG 2916/2917 05005MPS BKN020